sensor_id;sensor_type;location;lat;lon;timestamp;pressure;altitude;pressure_sealevel;temperature;humidity
10127;BME280;13080;42.608;23.362;2023-01-10T00:00:03;151599.72;;;1.96;99.96
10127;BME280;13080;42.608;23.362;2023-01-10T00:02:30;151577.78;;;1.87;100.00
10127;BME280;13080;42.608;23.362;2023-01-10T00:04:56;151566.19;;;1.82;100.00
10127;BME280;13080;42.608;23.362;2023-01-10T00:07:23;151563.56;;;1.81;100.00
10127;BME280;13080;42.608;23.362;2023-01-10T00:09:51;151566.19;;;1.82;100.00
10127;BME280;13080;42.608;23.362;2023-01-10T00:12:17;151559.75;;;1.80;100.00
10127;BME280;13080;42.608;23.362;2023-01-10T00:15:01;151553.31;;;1.77;100.00
10127;BME280;13080;42.608;23.362;2023-01-10T00:17:28;151546.81;;;1.75;100.00
10127;BME280;13080;42.608;23.362;2023-01-10T00:19:54;151553.31;;;1.77;100.00
10127;BME280;13080;42.608;23.362;2023-01-10T00:22:21;151554.56;;;1.78;100.00
10127;BME280;13080;42.608;23.362;2023-01-10T00:24:50;151541.69;;;1.73;100.00
10127;BME280;13080;42.608;23.362;2023-01-10T00:27:17;151542.97;;;1.73;100.00
10127;BME280;13080;42.608;23.362;2023-01-10T00:29:48;151530.03;;;1.68;100.00
10127;BME280;13080;42.608;23.362;2023-01-10T00:32:16;151504.28;;;1.58;100.00
10127;BME280;13080;42.608;23.362;2023-01-10T00:34:43;151503.00;;;1.57;100.00
10127;BME280;13080;42.608;23.362;2023-01-10T00:37:09;151517.16;;;1.63;100.00
10127;BME280;13080;42.608;23.362;2023-01-10T00:39:36;151527.50;;;1.67;100.00
10127;BME280;13080;42.608;23.362;2023-01-10T00:42:04;151527.50;;;1.67;100.00
10127;BME280;13080;42.608;23.362;2023-01-10T00:44:48;151537.81;;;1.71;100.00
10127;BME280;13080;42.608;23.362;2023-01-10T00:47:14;151536.53;;;1.71;100.00
10127;BME280;13080;42.608;23.362;2023-01-10T00:49:41;151532.66;;;1.69;100.00
10127;BME280;13080;42.608;23.362;2023-01-10T00:52:07;151541.69;;;1.73;100.00
10127;BME280;13080;42.608;23.362;2023-01-10T00:54:34;151541.69;;;1.73;100.00
10127;BME280;13080;42.608;23.362;2023-01-10T00:57:00;151537.81;;;1.71;100.00
10127;BME280;13080;42.608;23.362;2023-01-10T00:59:28;151518.44;;;1.63;100.00
10127;BME280;13080;42.608;23.362;2023-01-10T01:01:55;151508.16;;;1.59;100.00
10127;BME280;13080;42.608;23.362;2023-01-10T01:04:21;151506.84;;;1.59;100.00
10127;BME280;13080;42.608;23.362;2023-01-10T01:06:48;151500.41;;;1.56;100.00
10127;BME280;13080;42.608;23.362;2023-01-10T01:09:14;151504.28;;;1.58;100.00
10127;BME280;13080;42.608;23.362;2023-01-10T01:11:41;151477.19;;;1.47;100.00
10127;BME280;13080;42.608;23.362;2023-01-10T01:14:08;151466.88;;;1.43;100.00
10127;BME280;13080;42.608;23.362;2023-01-10T01:16:36;151469.47;;;1.44;100.00
10127;BME280;13080;42.608;23.362;2023-01-10T01:19:02;151469.47;;;1.44;100.00
10127;BME280;13080;42.608;23.362;2023-01-10T01:21:29;151465.59;;;1.42;100.00
10127;BME280;13080;42.608;23.362;2023-01-10T01:23:55;151443.66;;;1.34;100.00
10127;BME280;13080;42.608;23.362;2023-01-10T01:26:22;151448.81;;;1.36;100.00
10127;BME280;13080;42.608;23.362;2023-01-10T01:28:49;151455.28;;;1.38;100.00
10127;BME280;13080;42.608;23.362;2023-01-10T01:31:15;151446.28;;;1.35;100.00
10127;BME280;13080;42.608;23.362;2023-01-10T01:33:43;151417.91;;;1.23;100.00
10127;BME280;13080;42.608;23.362;2023-01-10T01:36:10;151426.91;;;1.27;100.00
10127;BME280;13080;42.608;23.362;2023-01-10T01:38:37;151430.78;;;1.29;100.00
10127;BME280;13080;42.608;23.362;2023-01-10T01:41:04;151415.31;;;1.22;100.00
10127;BME280;13080;42.608;23.362;2023-01-10T01:43:58;151405.00;;;1.18;100.00
10127;BME280;13080;42.608;23.362;2023-01-10T01:46:25;151399.81;;;1.16;100.00
10127;BME280;13080;42.608;23.362;2023-01-10T01:48:53;151377.91;;;1.08;100.00
10127;BME280;13080;42.608;23.362;2023-01-10T01:51:20;151376.63;;;1.07;100.00
10127;BME280;13080;42.608;23.362;2023-01-10T01:53:49;151370.19;;;1.04;100.00
10127;BME280;13080;42.608;23.362;2023-01-10T01:56:20;151363.75;;;1.02;100.00
10127;BME280;13080;42.608;23.362;2023-01-10T01:58:48;151376.63;;;1.07;100.00
10127;BME280;13080;42.608;23.362;2023-01-10T02:01:16;151389.56;;;1.12;100.00
10127;BME280;13080;42.608;23.362;2023-01-10T02:03:44;151393.38;;;1.14;100.00
10127;BME280;13080;42.608;23.362;2023-01-10T02:06:15;151402.44;;;1.17;100.00
10127;BME280;13080;42.608;23.362;2023-01-10T02:08:43;151403.72;;;1.18;100.00
10127;BME280;13080;42.608;23.362;2023-01-10T02:11:10;151384.41;;;1.10;100.00
10127;BME280;13080;42.608;23.362;2023-01-10T02:13:37;151388.22;;;1.12;100.00
10127;BME280;13080;42.608;23.362;2023-01-10T02:16:05;151388.22;;;1.12;100.00
10127;BME280;13080;42.608;23.362;2023-01-10T02:18:32;151376.63;;;1.07;100.00
10127;BME280;13080;42.608;23.362;2023-01-10T02:21:09;151383.06;;;1.10;100.00
10127;BME280;13080;42.608;23.362;2023-01-10T02:26:52;151405.00;;;1.18;100.00
10127;BME280;13080;42.608;23.362;2023-01-10T02:32:10;151428.19;;;1.28;100.00
10127;BME280;13080;42.608;23.362;2023-01-10T02:34:40;151416.59;;;1.23;100.00
10127;BME280;13080;42.608;23.362;2023-01-10T02:37:11;151434.69;;;1.30;100.00
10127;BME280;13080;42.608;23.362;2023-01-10T02:39:42;151432.06;;;1.29;100.00
10127;BME280;13080;42.608;23.362;2023-01-10T02:42:14;151423.03;;;1.25;100.00
10127;BME280;13080;42.608;23.362;2023-01-10T02:44:44;151426.91;;;1.27;100.00
10127;BME280;13080;42.608;23.362;2023-01-10T02:47:17;151393.38;;;1.14;100.00
10127;BME280;13080;42.608;23.362;2023-01-10T02:49:44;151380.50;;;1.09;100.00
10127;BME280;13080;42.608;23.362;2023-01-10T02:52:11;151385.69;;;1.11;100.00
10127;BME280;13080;42.608;23.362;2023-01-10T02:54:39;151379.25;;;1.08;100.00
10127;BME280;13080;42.608;23.362;2023-01-10T02:57:13;151385.69;;;1.11;100.00
10127;BME280;13080;42.608;23.362;2023-01-10T02:59:49;151398.56;;;1.16;100.00
10127;BME280;13080;42.608;23.362;2023-01-10T03:02:28;151374.06;;;1.06;100.00
10127;BME280;13080;42.608;23.362;2023-01-10T03:05:01;151388.22;;;1.12;100.00
10127;BME280;13080;42.608;23.362;2023-01-10T03:07:32;151371.47;;;1.05;100.00
10127;BME280;13080;42.608;23.362;2023-01-10T03:10:02;151370.19;;;1.04;100.00
10127;BME280;13080;42.608;23.362;2023-01-10T03:12:32;151348.28;;;0.96;100.00
10127;BME280;13080;42.608;23.362;2023-01-10T03:15:01;151327.69;;;0.88;100.00
10127;BME280;13080;42.608;23.362;2023-01-10T03:17:30;151323.81;;;0.86;100.00
10127;BME280;13080;42.608;23.362;2023-01-10T03:19:57;151322.53;;;0.86;100.00
10127;BME280;13080;42.608;23.362;2023-01-10T03:25:11;151317.38;;;0.83;100.00
10127;BME280;13080;42.608;23.362;2023-01-10T03:27:41;151327.69;;;0.88;100.00
10127;BME280;13080;42.608;23.362;2023-01-10T03:30:11;151339.28;;;0.92;100.00
10127;BME280;13080;42.608;23.362;2023-01-10T03:32:42;151353.44;;;0.98;100.00
10127;BME280;13080;42.608;23.362;2023-01-10T03:35:09;151362.47;;;1.01;100.00
10127;BME280;13080;42.608;23.362;2023-01-10T03:37:37;151370.19;;;1.04;100.00
10127;BME280;13080;42.608;23.362;2023-01-10T03:40:08;151383.06;;;1.10;100.00
10127;BME280;13080;42.608;23.362;2023-01-10T03:42:44;151390.84;;;1.13;100.00
10127;BME280;13080;42.608;23.362;2023-01-10T03:45:31;151401.16;;;1.17;100.00
10127;BME280;13080;42.608;23.362;2023-01-10T03:48:01;151397.28;;;1.15;100.00
10127;BME280;13080;42.608;23.362;2023-01-10T03:50:29;151408.88;;;1.20;100.00
10127;BME280;13080;42.608;23.362;2023-01-10T03:52:57;151394.66;;;1.14;100.00
10127;BME280;13080;42.608;23.362;2023-01-10T03:55:25;151372.81;;;1.06;100.00
10127;BME280;13080;42.608;23.362;2023-01-10T03:57:53;151384.41;;;1.10;100.00
10127;BME280;13080;42.608;23.362;2023-01-10T04:00:19;151381.78;;;1.09;100.00
10127;BME280;13080;42.608;23.362;2023-01-10T04:02:46;151380.50;;;1.09;100.00
10127;BME280;13080;42.608;23.362;2023-01-10T04:05:14;151390.84;;;1.13;100.00
10127;BME280;13080;42.608;23.362;2023-01-10T04:07:41;151392.13;;;1.13;100.00
10127;BME280;13080;42.608;23.362;2023-01-10T04:10:07;151385.69;;;1.11;100.00
10127;BME280;13080;42.608;23.362;2023-01-10T04:12:34;151375.34;;;1.07;100.00
10127;BME280;13080;42.608;23.362;2023-01-10T04:15:01;151361.19;;;1.01;100.00
10127;BME280;13080;42.608;23.362;2023-01-10T04:17:27;151371.47;;;1.05;100.00
10127;BME280;13080;42.608;23.362;2023-01-10T04:19:54;151372.81;;;1.06;100.00
10127;BME280;13080;42.608;23.362;2023-01-10T04:22:22;151390.84;;;1.13;100.00
10127;BME280;13080;42.608;23.362;2023-01-10T04:24:48;151396.00;;;1.15;100.00
10127;BME280;13080;42.608;23.362;2023-01-10T04:27:16;151392.13;;;1.13;100.00
10127;BME280;13080;42.608;23.362;2023-01-10T04:29:42;151399.81;;;1.16;100.00
10127;BME280;13080;42.608;23.362;2023-01-10T04:32:09;151405.00;;;1.18;100.00
10127;BME280;13080;42.608;23.362;2023-01-10T04:34:35;151415.31;;;1.22;100.00
10127;BME280;13080;42.608;23.362;2023-01-10T04:37:02;151434.69;;;1.30;100.00
10127;BME280;13080;42.608;23.362;2023-01-10T04:39:29;151425.63;;;1.27;100.00
10127;BME280;13080;42.608;23.362;2023-01-10T04:41:56;151429.50;;;1.28;100.00
10127;BME280;13080;42.608;23.362;2023-01-10T04:44:22;151429.50;;;1.28;100.00
10127;BME280;13080;42.608;23.362;2023-01-10T04:46:49;151432.06;;;1.29;100.00
10127;BME280;13080;42.608;23.362;2023-01-10T04:49:15;151437.22;;;1.31;100.00
10127;BME280;13080;42.608;23.362;2023-01-10T04:51:42;151425.63;;;1.27;100.00
10127;BME280;13080;42.608;23.362;2023-01-10T04:54:08;151439.78;;;1.32;100.00
10127;BME280;13080;42.608;23.362;2023-01-10T04:56:36;151437.22;;;1.31;100.00
10127;BME280;13080;42.608;23.362;2023-01-10T04:59:04;151412.75;;;1.21;100.00
10127;BME280;13080;42.608;23.362;2023-01-10T05:01:30;151417.91;;;1.23;100.00
10127;BME280;13080;42.608;23.362;2023-01-10T05:03:59;151423.03;;;1.25;100.00
10127;BME280;13080;42.608;23.362;2023-01-10T05:06:27;151433.34;;;1.30;100.00
10127;BME280;13080;42.608;23.362;2023-01-10T05:08:53;151415.31;;;1.22;100.00
10127;BME280;13080;42.608;23.362;2023-01-10T05:11:20;151417.91;;;1.23;100.00
10127;BME280;13080;42.608;23.362;2023-01-10T05:13:48;151414.03;;;1.22;100.00
10127;BME280;13080;42.608;23.362;2023-01-10T05:16:14;151419.19;;;1.24;100.00
10127;BME280;13080;42.608;23.362;2023-01-10T05:18:41;151397.28;;;1.15;100.00
10127;BME280;13080;42.608;23.362;2023-01-10T05:21:08;151385.69;;;1.11;100.00
10127;BME280;13080;42.608;23.362;2023-01-10T05:23:35;151406.31;;;1.19;100.00
10127;BME280;13080;42.608;23.362;2023-01-10T05:26:04;151438.50;;;1.32;100.00
10127;BME280;13080;42.608;23.362;2023-01-10T05:28:30;151446.28;;;1.35;100.00
10127;BME280;13080;42.608;23.362;2023-01-10T05:30:58;151441.13;;;1.33;100.00
10127;BME280;13080;42.608;23.362;2023-01-10T05:33:24;151408.88;;;1.20;100.00
10127;BME280;13080;42.608;23.362;2023-01-10T05:35:51;151410.16;;;1.20;100.00
10127;BME280;13080;42.608;23.362;2023-01-10T05:38:17;151405.00;;;1.18;100.00
10127;BME280;13080;42.608;23.362;2023-01-10T05:40:44;151412.75;;;1.21;100.00
10127;BME280;13080;42.608;23.362;2023-01-10T05:43:10;151417.91;;;1.23;100.00
10127;BME280;13080;42.608;23.362;2023-01-10T05:48:23;151424.34;;;1.26;100.00
10127;BME280;13080;42.608;23.362;2023-01-10T05:50:50;151439.78;;;1.32;100.00
10127;BME280;13080;42.608;23.362;2023-01-10T05:53:17;151454.00;;;1.38;100.00
10127;BME280;13080;42.608;23.362;2023-01-10T05:55:50;151470.75;;;1.44;100.00
10127;BME280;13080;42.608;23.362;2023-01-10T05:58:17;151482.34;;;1.49;100.00
10127;BME280;13080;42.608;23.362;2023-01-10T06:00:43;151491.41;;;1.53;100.00
10127;BME280;13080;42.608;23.362;2023-01-10T06:03:10;151483.63;;;1.50;100.00
10127;BME280;13080;42.608;23.362;2023-01-10T06:05:38;151496.56;;;1.55;100.00
10127;BME280;13080;42.608;23.362;2023-01-10T06:08:04;151500.41;;;1.56;100.00
10127;BME280;13080;42.608;23.362;2023-01-10T06:10:31;151495.25;;;1.54;100.00
10127;BME280;13080;42.608;23.362;2023-01-10T06:12:57;151517.16;;;1.63;100.00
10127;BME280;13080;42.608;23.362;2023-01-10T06:15:24;151557.13;;;1.79;100.00
10127;BME280;13080;42.608;23.362;2023-01-10T06:17:50;151572.63;;;1.85;100.00
10127;BME280;13080;42.608;23.362;2023-01-10T06:20:17;151575.19;;;1.86;100.00
10127;BME280;13080;42.608;23.362;2023-01-10T06:22:45;151554.56;;;1.78;100.00
10127;BME280;13080;42.608;23.362;2023-01-10T06:25:12;151532.66;;;1.69;100.00
10127;BME280;13080;42.608;23.362;2023-01-10T06:27:39;151513.28;;;1.61;100.00
10127;BME280;13080;42.608;23.362;2023-01-10T06:30:06;151508.16;;;1.59;100.00
10127;BME280;13080;42.608;23.362;2023-01-10T06:32:33;151518.44;;;1.63;100.00
10127;BME280;13080;42.608;23.362;2023-01-10T06:34:59;151519.78;;;1.64;100.00
10127;BME280;13080;42.608;23.362;2023-01-10T06:37:26;151540.38;;;1.72;100.00
10127;BME280;13080;42.608;23.362;2023-01-10T06:39:53;151561.03;;;1.80;100.00
10127;BME280;13080;42.608;23.362;2023-01-10T06:42:20;151567.47;;;1.83;100.00
10127;BME280;13080;42.608;23.362;2023-01-10T06:44:46;151588.13;;;1.91;100.00
10127;BME280;13080;42.608;23.362;2023-01-10T06:47:13;151597.13;;;1.95;100.00
10127;BME280;13080;42.608;23.362;2023-01-10T06:49:39;151595.84;;;1.94;100.00
10127;BME280;13080;42.608;23.362;2023-01-10T06:52:06;151606.16;;;1.98;100.00
10127;BME280;13080;42.608;23.362;2023-01-10T06:54:32;151611.31;;;2.00;100.00
10127;BME280;13080;42.608;23.362;2023-01-10T06:57:00;151603.56;;;1.97;100.00
10127;BME280;13080;42.608;23.362;2023-01-10T06:59:27;151593.28;;;1.93;100.00
10127;BME280;13080;42.608;23.362;2023-01-10T07:01:53;151602.28;;;1.97;100.00
10127;BME280;13080;42.608;23.362;2023-01-10T07:04:20;151612.59;;;2.01;100.00
10127;BME280;13080;42.608;23.362;2023-01-10T07:06:46;151610.06;;;2.00;100.00
10127;BME280;13080;42.608;23.362;2023-01-10T07:09:13;151635.81;;;2.10;100.00
10127;BME280;13080;42.608;23.362;2023-01-10T07:11:39;151666.81;;;2.22;100.00
10127;BME280;13080;42.608;23.362;2023-01-10T07:14:07;151699.03;;;2.35;100.00
10127;BME280;13080;42.608;23.362;2023-01-10T07:16:34;151719.69;;;2.43;100.00
10127;BME280;13080;42.608;23.362;2023-01-10T07:19:00;151744.19;;;2.53;100.00
10127;BME280;13080;42.608;23.362;2023-01-10T07:21:27;151764.88;;;2.61;100.00
10127;BME280;13080;42.608;23.362;2023-01-10T07:23:54;151781.63;;;2.68;100.00
10127;BME280;13080;42.608;23.362;2023-01-10T07:26:20;151798.41;;;2.75;100.00
10127;BME280;13080;42.608;23.362;2023-01-10T07:28:48;151806.16;;;2.78;100.00
10127;BME280;13080;42.608;23.362;2023-01-10T07:31:17;151824.25;;;2.85;100.00
10127;BME280;13080;42.608;23.362;2023-01-10T07:33:44;151837.16;;;2.90;100.00
10127;BME280;13080;42.608;23.362;2023-01-10T07:36:10;151869.44;;;3.03;100.00
10127;BME280;13080;42.608;23.362;2023-01-10T07:38:37;151888.78;;;3.10;100.00
10127;BME280;13080;42.608;23.362;2023-01-10T07:41:04;151909.47;;;3.19;100.00
10127;BME280;13080;42.608;23.362;2023-01-10T07:43:31;151919.75;;;3.23;100.00
10127;BME280;13080;42.608;23.362;2023-01-10T07:45:57;151927.53;;;3.26;100.00
10127;BME280;13080;42.608;23.362;2023-01-10T07:48:25;151944.31;;;3.32;100.00
10127;BME280;13080;42.608;23.362;2023-01-10T07:50:54;151953.34;;;3.36;100.00
10127;BME280;13080;42.608;23.362;2023-01-10T07:53:20;151976.63;;;3.45;100.00
10127;BME280;13080;42.608;23.362;2023-01-10T07:55:47;151977.91;;;3.46;100.00
10127;BME280;13080;42.608;23.362;2023-01-10T07:58:13;151997.25;;;3.53;100.00
10127;BME280;13080;42.608;23.362;2023-01-10T08:00:40;152019.22;;;3.62;100.00
10127;BME280;13080;42.608;23.362;2023-01-10T08:03:08;152003.69;;;3.56;100.00
10127;BME280;13080;42.608;23.362;2023-01-10T08:05:36;151970.13;;;3.43;100.00
10127;BME280;13080;42.608;23.362;2023-01-10T08:08:03;151918.47;;;3.22;100.00
10127;BME280;13080;42.608;23.362;2023-01-10T08:10:30;151891.34;;;3.11;100.00
10127;BME280;13080;42.608;23.362;2023-01-10T08:12:56;151888.78;;;3.10;100.00
10127;BME280;13080;42.608;23.362;2023-01-10T08:15:23;151884.91;;;3.09;100.00
10127;BME280;13080;42.608;23.362;2023-01-10T08:17:49;151892.69;;;3.12;100.00
10127;BME280;13080;42.608;23.362;2023-01-10T08:20:16;151887.50;;;3.10;100.00
10127;BME280;13080;42.608;23.362;2023-01-10T08:22:44;151893.97;;;3.12;100.00
10127;BME280;13080;42.608;23.362;2023-01-10T08:25:10;151901.69;;;3.16;100.00
10127;BME280;13080;42.608;23.362;2023-01-10T08:27:37;151909.47;;;3.19;100.00
10127;BME280;13080;42.608;23.362;2023-01-10T08:30:04;151890.06;;;3.11;100.00
10127;BME280;13080;42.608;23.362;2023-01-10T08:32:31;151893.97;;;3.12;100.00
10127;BME280;13080;42.608;23.362;2023-01-10T08:34:57;151874.56;;;3.05;100.00
10127;BME280;13080;42.608;23.362;2023-01-10T08:37:24;151893.97;;;3.12;100.00
10127;BME280;13080;42.608;23.362;2023-01-10T08:39:52;151899.13;;;3.15;100.00
10127;BME280;13080;42.608;23.362;2023-01-10T08:42:18;151895.25;;;3.13;100.00
10127;BME280;13080;42.608;23.362;2023-01-10T08:44:45;151868.13;;;3.02;100.00
10127;BME280;13080;42.608;23.362;2023-01-10T08:47:11;151883.63;;;3.08;100.00
10127;BME280;13080;42.608;23.362;2023-01-10T08:49:55;151869.44;;;3.03;100.00
10127;BME280;13080;42.608;23.362;2023-01-10T08:52:22;151874.56;;;3.05;100.00
10127;BME280;13080;42.608;23.362;2023-01-10T08:54:48;151882.34;;;3.08;100.00
10127;BME280;13080;42.608;23.362;2023-01-10T08:57:17;151877.16;;;3.06;100.00
10127;BME280;13080;42.608;23.362;2023-01-10T08:59:43;151897.84;;;3.14;100.00
10127;BME280;13080;42.608;23.362;2023-01-10T09:02:10;151901.69;;;3.16;100.00
10127;BME280;13080;42.608;23.362;2023-01-10T09:04:38;151909.47;;;3.19;100.00
10127;BME280;13080;42.608;23.362;2023-01-10T09:07:04;151919.75;;;3.23;100.00
10127;BME280;13080;42.608;23.362;2023-01-10T09:09:31;151919.75;;;3.23;100.00
10127;BME280;13080;42.608;23.362;2023-01-10T09:11:57;151928.81;;;3.26;100.00
10127;BME280;13080;42.608;23.362;2023-01-10T09:14:25;151906.84;;;3.18;100.00
10127;BME280;13080;42.608;23.362;2023-01-10T09:16:52;151930.09;;;3.27;100.00
10127;BME280;13080;42.608;23.362;2023-01-10T09:19:18;151904.28;;;3.17;100.00
10127;BME280;13080;42.608;23.362;2023-01-10T09:21:45;151944.31;;;3.32;100.00
10127;BME280;13080;42.608;23.362;2023-01-10T09:24:11;151941.72;;;3.31;100.00
10127;BME280;13080;42.608;23.362;2023-01-10T09:26:38;151962.41;;;3.40;100.00
10127;BME280;13080;42.608;23.362;2023-01-10T09:29:04;151974.00;;;3.44;100.00
10127;BME280;13080;42.608;23.362;2023-01-10T09:31:32;151985.63;;;3.49;100.00
10127;BME280;13080;42.608;23.362;2023-01-10T09:33:58;151993.38;;;3.52;100.00
10127;BME280;13080;42.608;23.362;2023-01-10T09:36:25;152007.59;;;3.58;100.00
10127;BME280;13080;42.608;23.362;2023-01-10T09:38:51;152025.66;;;3.65;100.00
10127;BME280;13080;42.608;23.362;2023-01-10T09:41:30;152008.88;;;3.58;100.00
10127;BME280;13080;42.608;23.362;2023-01-10T09:44:01;152025.66;;;3.65;100.00
10127;BME280;13080;42.608;23.362;2023-01-10T09:46:33;152020.50;;;3.63;100.00
10127;BME280;13080;42.608;23.362;2023-01-10T09:49:04;152023.09;;;3.64;100.00
10127;BME280;13080;42.608;23.362;2023-01-10T09:51:34;152016.66;;;3.61;100.00
10127;BME280;13080;42.608;23.362;2023-01-10T09:54:02;152002.44;;;3.56;100.00
10127;BME280;13080;42.608;23.362;2023-01-10T09:56:31;152015.31;;;3.61;100.00
10127;BME280;13080;42.608;23.362;2023-01-10T09:58:58;152001.16;;;3.55;100.00
10127;BME280;13080;42.608;23.362;2023-01-10T10:01:28;151999.88;;;3.54;100.00
10127;BME280;13080;42.608;23.362;2023-01-10T10:04:04;152001.16;;;3.55;100.00
10127;BME280;13080;42.608;23.362;2023-01-10T10:06:32;151990.81;;;3.51;100.00
10127;BME280;13080;42.608;23.362;2023-01-10T10:08:59;151976.63;;;3.45;100.00
10127;BME280;13080;42.608;23.362;2023-01-10T10:11:30;151958.50;;;3.38;100.00
10127;BME280;13080;42.608;23.362;2023-01-10T10:14:00;151952.06;;;3.36;100.00
10127;BME280;13080;42.608;23.362;2023-01-10T10:16:29;151946.88;;;3.33;100.00
10127;BME280;13080;42.608;23.362;2023-01-10T10:19:00;151937.88;;;3.30;100.00
10127;BME280;13080;42.608;23.362;2023-01-10T10:21:34;151932.69;;;3.28;100.00
10127;BME280;13080;42.608;23.362;2023-01-10T10:24:17;151936.53;;;3.29;100.00
10127;BME280;13080;42.608;23.362;2023-01-10T10:26:47;151928.81;;;3.26;100.00
10127;BME280;13080;42.608;23.362;2023-01-10T10:32:23;151933.97;;;3.28;100.00
10127;BME280;13080;42.608;23.362;2023-01-10T10:34:54;151928.81;;;3.26;100.00
10127;BME280;13080;42.608;23.362;2023-01-10T10:37:25;151952.06;;;3.36;100.00
10127;BME280;13080;42.608;23.362;2023-01-10T10:39:57;151955.94;;;3.37;100.00
10127;BME280;13080;42.608;23.362;2023-01-10T10:42:27;151954.66;;;3.37;100.00
10127;BME280;13080;42.608;23.362;2023-01-10T10:44:54;151966.28;;;3.41;100.00
10127;BME280;13080;42.608;23.362;2023-01-10T10:47:24;151964.94;;;3.41;100.00
10127;BME280;13080;42.608;23.362;2023-01-10T10:49:53;151961.09;;;3.39;100.00
10127;BME280;13080;42.608;23.362;2023-01-10T10:52:25;151966.28;;;3.41;100.00
10127;BME280;13080;42.608;23.362;2023-01-10T10:54:52;151946.88;;;3.33;100.00
10127;BME280;13080;42.608;23.362;2023-01-10T10:57:19;151948.16;;;3.34;100.00
10127;BME280;13080;42.608;23.362;2023-01-10T10:59:47;151966.28;;;3.41;100.00
10127;BME280;13080;42.608;23.362;2023-01-10T11:02:21;151967.56;;;3.42;100.00
10127;BME280;13080;42.608;23.362;2023-01-10T11:04:48;151964.94;;;3.41;100.00
10127;BME280;13080;42.608;23.362;2023-01-10T11:07:16;151922.38;;;3.24;100.00
10127;BME280;13080;42.608;23.362;2023-01-10T11:09:44;151941.72;;;3.31;100.00
10127;BME280;13080;42.608;23.362;2023-01-10T11:12:12;151931.41;;;3.27;100.00
10127;BME280;13080;42.608;23.362;2023-01-10T11:14:41;151935.25;;;3.29;100.00
10127;BME280;13080;42.608;23.362;2023-01-10T11:17:18;151937.88;;;3.30;100.00
10127;BME280;13080;42.608;23.362;2023-01-10T11:19:58;151954.66;;;3.37;100.00
10127;BME280;13080;42.608;23.362;2023-01-10T11:22:26;151950.78;;;3.35;100.00
10127;BME280;13080;42.608;23.362;2023-01-10T11:24:54;151974.00;;;3.44;100.00
10127;BME280;13080;42.608;23.362;2023-01-10T11:27:24;151979.19;;;3.46;100.00
10127;BME280;13080;42.608;23.362;2023-01-10T11:29:52;152002.44;;;3.56;100.00
10127;BME280;13080;42.608;23.362;2023-01-10T11:32:29;152010.16;;;3.59;100.00
10127;BME280;13080;42.608;23.362;2023-01-10T11:34:57;152006.31;;;3.57;100.00
10127;BME280;13080;42.608;23.362;2023-01-10T11:37:25;152002.44;;;3.56;100.00
10127;BME280;13080;42.608;23.362;2023-01-10T11:42:36;151962.41;;;3.40;100.00
10127;BME280;13080;42.608;23.362;2023-01-10T11:45:18;151936.53;;;3.29;100.00
10127;BME280;13080;42.608;23.362;2023-01-10T11:47:46;151913.31;;;3.20;100.00
10127;BME280;13080;42.608;23.362;2023-01-10T11:50:14;151930.09;;;3.27;100.00
10127;BME280;13080;42.608;23.362;2023-01-10T11:52:43;151914.63;;;3.21;100.00
10127;BME280;13080;42.608;23.362;2023-01-10T11:55:15;151922.38;;;3.24;100.00
10127;BME280;13080;42.608;23.362;2023-01-10T11:57:45;151924.91;;;3.25;100.00
10127;BME280;13080;42.608;23.362;2023-01-10T12:00:19;151923.66;;;3.24;100.00
10127;BME280;13080;42.608;23.362;2023-01-10T12:02:46;151921.09;;;3.23;100.00
10127;BME280;13080;42.608;23.362;2023-01-10T12:05:17;151906.84;;;3.18;100.00
10127;BME280;13080;42.608;23.362;2023-01-10T12:07:54;151899.13;;;3.15;100.00
10127;BME280;13080;42.608;23.362;2023-01-10T12:10:21;151877.16;;;3.06;100.00
10127;BME280;13080;42.608;23.362;2023-01-10T12:12:53;151862.94;;;3.00;100.00
10127;BME280;13080;42.608;23.362;2023-01-10T12:15:22;151852.66;;;2.96;100.00
10127;BME280;13080;42.608;23.362;2023-01-10T12:17:49;151852.66;;;2.96;100.00
10127;BME280;13080;42.608;23.362;2023-01-10T12:20:16;151851.34;;;2.96;100.00
10127;BME280;13080;42.608;23.362;2023-01-10T12:22:44;151833.28;;;2.88;100.00
10127;BME280;13080;42.608;23.362;2023-01-10T12:25:14;151813.94;;;2.81;100.00
10127;BME280;13080;42.608;23.362;2023-01-10T12:27:42;151817.75;;;2.82;100.00
10127;BME280;13080;42.608;23.362;2023-01-10T12:30:15;151815.22;;;2.81;100.00
10127;BME280;13080;42.608;23.362;2023-01-10T12:32:45;151768.75;;;2.63;100.00
10127;BME280;13080;42.608;23.362;2023-01-10T12:35:14;151782.91;;;2.68;100.00
10127;BME280;13080;42.608;23.362;2023-01-10T12:37:44;151772.59;;;2.64;100.00
10127;BME280;13080;42.608;23.362;2023-01-10T12:40:13;151749.38;;;2.55;100.00
10127;BME280;13080;42.608;23.362;2023-01-10T12:42:44;151760.97;;;2.60;100.00
10127;BME280;13080;42.608;23.362;2023-01-10T12:45:30;151754.53;;;2.57;100.00
10127;BME280;13080;42.608;23.362;2023-01-10T12:48:01;151754.53;;;2.57;100.00
10127;BME280;13080;42.608;23.362;2023-01-10T12:50:29;151731.31;;;2.48;100.00
10127;BME280;13080;42.608;23.362;2023-01-10T12:52:58;151736.47;;;2.50;100.00
10127;BME280;13080;42.608;23.362;2023-01-10T12:55:26;151727.41;;;2.46;100.00
10127;BME280;13080;42.608;23.362;2023-01-10T12:57:54;151740.34;;;2.52;100.00
10127;BME280;13080;42.608;23.362;2023-01-10T13:00:23;151744.19;;;2.53;100.00
10127;BME280;13080;42.608;23.362;2023-01-10T13:02:54;151740.34;;;2.52;100.00